Time;durP1;ratioP1;P1;durP2;ratioP2;P2;SDS_P1;SDS_P2;PMS_P1;PMS_P2;Temp;Humidity;BMP_temperature;BMP_pressure;BME280_temperature;BME280_humidity;BME280_pressure;Samples;Min_cycle;Max_cycle;Signal;HPM_P1;HPM_P2
2023/06/01 00:00:25;;;;;;;6.15;3.42;;;;;;;17.73;45.59;96824.13;4855519;29;20113;-79
2023/06/01 00:02:53;;;;;;;3.97;2.90;;;;;;;17.76;44.67;96823.69;4855651;29;20046;-79
2023/06/01 00:05:21;;;;;;;7.25;4.00;;;;;;;17.79;44.71;96823.25;4855226;29;20045;-79
2023/06/01 00:07:50;;;;;;;8.38;4.10;;;;;;;17.81;44.34;96821.19;4854048;29;20087;-79
2023/06/01 00:10:18;;;;;;;9.85;3.97;;;;;;;17.78;44.20;96833.00;4854872;29;20058;-79
2023/06/01 00:12:46;;;;;;;8.38;4.30;;;;;;;17.77;44.31;96826.09;4854514;29;20087;-79
2023/06/01 00:15:14;;;;;;;5.88;3.60;;;;;;;17.75;44.52;96832.63;4855271;29;20053;-79
2023/06/01 00:17:41;;;;;;;7.07;3.88;;;;;;;17.71;44.66;96825.16;4853520;29;20114;-79
2023/06/01 00:20:10;;;;;;;8.15;4.28;;;;;;;17.66;44.39;96825.00;4855409;29;20058;-79
2023/06/01 00:22:38;;;;;;;11.32;4.00;;;;;;;17.60;44.43;96815.38;4851674;29;20054;-79
2023/06/01 00:25:09;;;;;;;6.53;3.90;;;;;;;17.52;44.55;96817.50;4852347;29;20408;-80
2023/06/01 00:27:37;;;;;;;6.60;3.47;;;;;;;17.41;44.93;96821.66;4851940;29;20054;-79
2023/06/01 00:30:06;;;;;;;6.15;3.70;;;;;;;17.33;44.95;96824.59;4850947;29;20079;-79
2023/06/01 00:32:33;;;;;;;5.65;3.38;;;;;;;17.26;45.43;96824.66;4853666;29;20123;-81
2023/06/01 00:35:01;;;;;;;6.07;3.97;;;;;;;17.26;45.50;96820.19;4853925;29;20053;-79
2023/06/01 00:37:29;;;;;;;5.72;3.63;;;;;;;17.30;45.80;96823.19;4853134;29;20582;-79
2023/06/01 00:39:57;;;;;;;3.97;3.15;;;;;;;17.34;45.60;96821.72;4853339;29;20062;-78
2023/06/01 00:42:26;;;;;;;4.63;3.00;;;;;;;17.40;45.06;96825.31;4852336;29;20049;-78
2023/06/01 00:44:54;;;;;;;6.00;3.28;;;;;;;17.42;44.59;96823.25;4850452;29;20054;-79
2023/06/01 00:47:22;;;;;;;6.43;3.40;;;;;;;17.38;44.94;96815.00;4849484;29;20050;-79
2023/06/01 00:49:50;;;;;;;7.22;3.58;;;;;;;17.37;45.19;96817.84;4852757;29;20143;-79
2023/06/01 00:52:18;;;;;;;5.90;3.38;;;;;;;17.36;44.99;96818.84;4850154;29;20503;-79
2023/06/01 00:54:46;;;;;;;5.78;3.35;;;;;;;17.37;45.00;96820.50;4847271;29;20525;-79
2023/06/01 00:57:14;;;;;;;6.38;3.30;;;;;;;17.33;44.52;96820.09;4852326;29;20061;-79
2023/06/01 00:59:43;;;;;;;4.85;2.83;;;;;;;17.31;45.24;96819.53;4851577;29;20054;-79
2023/06/01 01:02:15;;;;;;;4.68;3.40;;;;;;;17.23;45.45;96815.34;4849925;29;20054;-79
2023/06/01 01:04:43;;;;;;;6.37;3.47;;;;;;;17.08;45.62;96817.53;4849569;29;20061;-79
2023/06/01 01:07:20;;;;;;;5.53;3.63;;;;;;;16.93;46.06;96814.44;4850601;29;20149;-79
2023/06/01 01:09:54;;;;;;;6.65;3.58;;;;;;;16.82;46.42;96821.22;4847568;29;20050;-79
2023/06/01 01:12:27;;;;;;;5.55;3.50;;;;;;;16.72;46.81;96829.56;4853033;29;20076;-79
2023/06/01 01:15:08;;;;;;;3.92;3.08;;;;;;;16.72;47.50;96829.56;4852878;29;20088;-79
2023/06/01 01:17:38;;;;;;;8.23;3.95;;;;;;;16.68;47.07;96823.94;4848808;29;20061;-79
2023/06/01 01:20:11;;;;;;;5.25;3.70;;;;;;;16.67;46.98;96834.66;4849518;29;20054;-79
2023/06/01 01:23:11;;;;;;;8.45;3.80;;;;;;;16.64;47.15;96824.56;4850244;29;20053;-79
2023/06/01 01:26:10;;;;;;;5.30;3.78;;;;;;;16.57;47.36;96816.69;4849709;29;20529;-79
2023/06/01 01:28:43;;;;;;;8.00;3.78;;;;;;;16.48;47.89;96823.25;4852438;29;20053;-79
2023/06/01 01:31:13;;;;;;;6.18;4.22;;;;;;;16.38;47.94;96817.66;4851291;29;20105;-79
2023/06/01 01:33:42;;;;;;;8.27;3.60;;;;;;;16.29;48.25;96817.13;4848261;29;20050;-79
2023/06/01 01:36:11;;;;;;;6.30;4.03;;;;;;;16.18;48.25;96815.97;4851198;29;20495;-79
2023/06/01 01:38:39;;;;;;;9.43;4.65;;;;;;;16.03;48.52;96812.81;4848336;29;20054;-79
2023/06/01 01:41:07;;;;;;;7.40;4.13;;;;;;;15.90;48.90;96811.06;4858358;29;20053;-79
2023/06/01 01:43:35;;;;;;;7.72;4.50;;;;;;;15.76;48.99;96812.13;4859497;29;20045;-79
2023/06/01 01:46:12;;;;;;;7.97;4.65;;;;;;;15.68;49.73;96807.06;4846569;29;20557;-79
2023/06/01 01:48:50;;;;;;;6.95;3.88;;;;;;;15.61;49.75;96801.84;4843597;29;20145;-79
2023/06/01 01:51:25;;;;;;;9.35;4.18;;;;;;;15.54;49.87;96799.22;4846434;29;20058;-79
2023/06/01 01:53:54;;;;;;;6.20;3.60;;;;;;;15.50;49.53;96800.66;4846791;29;20054;-79
2023/06/01 01:56:23;;;;;;;6.38;3.97;;;;;;;15.46;49.81;96802.09;4849684;29;20065;-79
2023/06/01 01:58:51;;;;;;;7.10;3.65;;;;;;;15.43;49.81;96797.25;4846836;29;20068;-79
2023/06/01 02:01:21;;;;;;;10.43;4.40;;;;;;;15.40;49.77;96795.03;4850494;29;20126;-79
2023/06/01 02:03:59;;;;;;;5.78;3.67;;;;;;;15.36;50.12;96796.47;4849468;29;20058;-79
2023/06/01 02:06:26;;;;;;;8.90;4.35;;;;;;;15.31;50.46;96796.28;4848541;29;20095;-79
2023/06/01 02:08:54;;;;;;;7.57;4.05;;;;;;;15.25;50.73;96798.72;4850081;29;20058;-79
2023/06/01 02:11:22;;;;;;;8.25;4.55;;;;;;;15.16;50.90;96791.28;4854956;29;20061;-79
2023/06/01 02:13:49;;;;;;;9.38;4.80;;;;;;;15.06;51.09;96793.50;4845835;29;20093;-79
2023/06/01 02:16:17;;;;;;;5.68;4.30;;;;;;;14.94;51.37;96796.75;4849016;29;20422;-78
2023/06/01 02:18:46;;;;;;;7.75;4.10;;;;;;;14.87;51.84;96788.09;4847900;29;20132;-78
2023/06/01 02:21:14;;;;;;;5.80;4.47;;;;;;;14.78;51.87;96797.16;4848625;29;20081;-79
2023/06/01 02:23:42;;;;;;;4.65;3.78;;;;;;;14.76;52.27;96800.03;4849266;29;20521;-79
2023/06/01 02:26:11;;;;;;;8.85;4.35;;;;;;;14.75;52.04;96797.59;4862116;29;20057;-79
2023/06/01 02:28:40;;;;;;;8.15;4.53;;;;;;;14.73;52.12;96792.53;4865571;29;20065;-79
2023/06/01 02:31:08;;;;;;;6.68;4.72;;;;;;;14.69;52.28;96793.94;4865328;29;20073;-79
2023/06/01 02:33:35;;;;;;;6.50;4.63;;;;;;;14.67;52.34;96796.00;4865436;29;20058;-79
2023/06/01 02:36:05;;;;;;;7.82;4.15;;;;;;;14.66;52.47;96791.75;4865327;29;20058;-78
2023/06/01 02:38:32;;;;;;;7.57;3.88;;;;;;;14.66;52.37;96789.09;4865603;29;20110;-79
2023/06/01 02:41:00;;;;;;;8.18;4.20;;;;;;;14.64;52.57;96788.50;4853308;29;20061;-79
2023/06/01 02:43:28;;;;;;;6.50;4.10;;;;;;;14.60;52.50;96790.72;4847386;29;20052;-78
2023/06/01 02:45:56;;;;;;;5.43;3.75;;;;;;;14.59;52.71;96791.75;4844780;29;20490;-80
2023/06/01 02:48:24;;;;;;;4.95;3.33;;;;;;;14.63;53.05;96784.28;4845978;29;20054;-79
2023/06/01 02:50:51;;;;;;;6.32;4.07;;;;;;;14.68;52.93;96787.09;4844610;29;20444;-79
2023/06/01 02:53:20;;;;;;;7.45;3.97;;;;;;;14.67;52.98;96784.66;4845781;29;20079;-79
2023/06/01 02:55:48;;;;;;;6.65;4.50;;;;;;;14.64;52.93;96785.88;4846388;29;20132;-79
2023/06/01 02:58:16;;;;;;;8.43;4.30;;;;;;;14.60;53.23;96779.41;4846385;29;20050;-78
2023/06/01 03:00:44;;;;;;;7.93;4.57;;;;;;;14.53;53.13;96784.63;4844243;29;20057;-78
2023/06/01 03:03:12;;;;;;;6.85;4.68;;;;;;;14.46;53.59;96783.03;4846009;29;20054;-79
2023/06/01 03:05:42;;;;;;;8.30;4.40;;;;;;;14.43;53.72;96785.06;4845362;29;20057;-78
2023/06/01 03:08:10;;;;;;;4.38;3.50;;;;;;;14.50;54.35;96781.63;4844491;29;20058;-78
2023/06/01 03:10:39;;;;;;;8.73;4.15;;;;;;;14.52;53.34;96788.28;4845870;29;20050;-78
2023/06/01 03:13:06;;;;;;;5.53;3.83;;;;;;;14.52;53.52;96782.19;4845735;29;20149;-79
2023/06/01 03:15:34;;;;;;;9.15;4.25;;;;;;;14.53;53.23;96773.34;4845277;29;20049;-78
2023/06/01 03:18:02;;;;;;;6.68;4.70;;;;;;;14.49;53.31;96785.25;4846765;29;20499;-79
2023/06/01 03:20:30;;;;;;;5.97;4.53;;;;;;;14.43;53.72;96779.81;4844513;29;20499;-79
2023/06/01 03:22:58;;;;;;;6.18;4.53;;;;;;;14.40;53.58;96780.19;4847333;29;20080;-79
2023/06/01 03:25:25;;;;;;;5.88;4.35;;;;;;;14.38;53.80;96786.66;4846246;29;20046;-79
2023/06/01 03:27:54;;;;;;;5.53;4.63;;;;;;;14.35;53.84;96787.88;4844976;29;20477;-79
2023/06/01 03:30:22;;;;;;;5.70;4.60;;;;;;;14.30;53.89;96789.47;4844756;29;20104;-79
2023/06/01 03:32:50;;;;;;;7.53;4.30;;;;;;;14.24;53.86;96793.72;4845372;29;20519;-79
2023/06/01 03:35:18;;;;;;;8.05;4.18;;;;;;;14.18;54.25;96787.44;4844885;29;20057;-79
2023/06/01 03:37:46;;;;;;;8.82;4.22;;;;;;;14.13;54.27;96786.44;4844114;29;20058;-78
2023/06/01 03:40:13;;;;;;;9.13;4.35;;;;;;;14.08;54.47;96783.56;4844406;29;20054;-79
2023/06/01 03:42:42;;;;;;;10.85;4.30;;;;;;;14.02;54.71;96788.63;4844148;29;20141;-78
2023/06/01 03:45:13;;;;;;;11.27;4.97;;;;;;;13.93;55.03;96789.03;4843226;29;20054;-78
2023/06/01 03:47:40;;;;;;;5.43;3.85;;;;;;;13.88;54.98;96796.66;4845028;29;20107;-78
2023/06/01 03:50:10;;;;;;;10.30;4.43;;;;;;;13.87;55.15;96793.22;4845006;29;20106;-78
2023/06/01 03:52:38;;;;;;;7.85;4.63;;;;;;;13.87;55.36;96795.84;4844891;29;20058;-78
2023/06/01 03:55:09;;;;;;;4.65;3.85;;;;;;;13.93;55.72;96795.06;4844780;29;20518;-79
2023/06/01 03:57:37;;;;;;;10.50;4.47;;;;;;;14.04;55.60;96800.72;4844562;29;20060;-78
2023/06/01 04:00:17;;;;;;;6.30;4.53;;;;;;;14.16;56.24;96801.75;4844693;29;20050;-78
2023/06/01 04:02:50;;;;;;;8.65;4.43;;;;;;;14.26;55.48;96798.78;4843221;29;20057;-78
2023/06/01 04:05:18;;;;;;;9.88;4.35;;;;;;;14.25;54.86;96803.19;4842971;29;20046;-77
2023/06/01 04:07:48;;;;;;;9.93;5.07;;;;;;;14.17;55.07;96800.78;4842926;29;20050;-78
2023/06/01 04:10:16;;;;;;;11.07;4.95;;;;;;;14.08;55.26;96799.31;4838422;29;20054;-78
2023/06/01 04:12:46;;;;;;;6.90;4.47;;;;;;;14.08;55.55;96802.78;4842841;29;20144;-78
2023/06/01 04:15:15;;;;;;;7.20;4.63;;;;;;;14.15;55.73;96808.03;4842216;29;20054;-78
2023/06/01 04:17:44;;;;;;;6.32;4.97;;;;;;;14.23;55.18;96810.44;4837874;29;20557;-78
2023/06/01 04:20:15;;;;;;;6.10;4.40;;;;;;;14.29;55.39;96817.53;4843014;29;20058;-78
2023/06/01 04:22:44;;;;;;;7.43;5.45;;;;;;;14.31;54.69;96815.50;4843269;29;20484;-78
2023/06/01 04:25:16;;;;;;;11.32;5.25;;;;;;;14.28;54.67;96817.72;4842354;29;20054;-78
2023/06/01 04:27:45;;;;;;;;;;;;;;;14.27;54.90;96822.16;4843470;29;20065;-79
2023/06/01 04:30:13;;;;;;;10.48;5.50;;;;;;;14.28;54.37;96823.78;4842846;29;19989;-78
2023/06/01 04:32:41;;;;;;;6.93;4.45;;;;;;;14.30;54.85;96820.94;4843101;29;20057;-78
2023/06/01 04:35:09;;;;;;;8.25;4.57;;;;;;;14.35;54.39;96821.97;4842692;29;20491;-79
2023/06/01 04:37:40;;;;;;;5.72;4.25;;;;;;;14.47;54.89;96829.25;4847095;29;20057;-78
2023/06/01 04:40:09;;;;;;;8.73;5.40;;;;;;;14.52;53.97;96825.03;4857529;29;20057;-79
2023/06/01 04:42:41;;;;;;;6.35;4.72;;;;;;;14.59;54.36;96822.44;4852984;29;20510;-78
2023/06/01 04:45:09;;;;;;;7.63;4.47;;;;;;;14.73;53.91;96816.16;4843864;29;20053;-78
2023/06/01 04:47:39;;;;;;;7.15;4.10;;;;;;;14.86;53.82;96820.59;4842661;29;20068;-78
2023/06/01 04:50:09;;;;;;;7.22;4.35;;;;;;;14.99;53.77;96823.22;4842120;29;20053;-79
2023/06/01 04:52:40;;;;;;;5.78;4.10;;;;;;;15.11;53.68;96820.78;4842181;29;20114;-79
2023/06/01 04:55:09;;;;;;;11.55;4.65;;;;;;;15.17;53.57;96827.84;4841632;29;20054;-79
2023/06/01 04:57:38;;;;;;;8.13;4.80;;;;;;;15.13;53.29;96818.78;4842642;29;20054;-79
2023/06/01 05:00:11;;;;;;;8.68;4.70;;;;;;;15.07;53.46;96816.97;4842192;29;20523;-78
2023/06/01 05:02:39;;;;;;;;;;;;;;;14.99;53.19;96820.59;4842356;29;20054;-77
2023/06/01 05:05:07;;;;;;;8.20;5.13;;;;;;;14.88;53.66;96817.78;4842217;29;20015;-79
2023/06/01 05:07:36;;;;;;;7.10;5.18;;;;;;;14.77;54.10;96820.00;4843773;29;20069;-78
2023/06/01 05:10:08;;;;;;;9.80;5.32;;;;;;;14.70;54.48;96816.59;4843958;29;20061;-79
2023/06/01 05:12:37;;;;;;;8.93;5.38;;;;;;;14.66;54.76;96815.38;4837652;29;20132;-78
2023/06/01 05:15:07;;;;;;;8.95;5.38;;;;;;;14.64;55.00;96825.25;4846354;29;20041;-78
2023/06/01 05:17:35;;;;;;;13.45;6.57;;;;;;;14.62;55.10;96807.06;4830585;29;20523;-77
2023/06/01 05:20:04;;;;;;;10.88;7.05;;;;;;;14.62;55.42;96811.53;4837871;29;20054;-78
2023/06/01 05:22:31;;;;;;;11.50;5.95;;;;;;;14.66;55.38;96806.69;4834728;29;20132;-78
2023/06/01 05:25:00;;;;;;;7.90;5.30;;;;;;;14.74;55.77;96811.75;4841354;29;20050;-78
2023/06/01 05:27:29;;;;;;;7.75;5.28;;;;;;;14.88;55.83;96815.16;4841532;29;20060;-78
2023/06/01 05:30:00;;;;;;;8.48;4.90;;;;;;;14.99;55.74;96810.09;4833396;29;20573;-79
2023/06/01 05:32:28;;;;;;;8.07;5.05;;;;;;;15.13;55.43;96808.25;4845486;29;20058;-78
2023/06/01 05:34:55;;;;;;;8.68;5.20;;;;;;;15.28;54.98;96812.47;4844963;29;20069;-78
2023/06/01 05:37:23;;;;;;;10.10;5.60;;;;;;;15.39;54.57;96819.69;4845928;29;20193;-78
2023/06/01 05:42:36;;;;;;;9.80;6.13;;;;;;;15.48;54.61;96815.84;4847559;29;20065;-79
2023/06/01 05:45:05;;;;;;;8.82;6.15;;;;;;;15.48;54.46;96818.50;4848803;29;20486;-78
2023/06/01 05:47:33;;;;;;;11.88;7.63;;;;;;;15.47;54.24;96811.59;4846102;29;20050;-77
2023/06/01 05:50:01;;;;;;;11.38;6.80;;;;;;;15.48;54.48;96812.41;4845113;29;20061;-77
2023/06/01 05:52:29;;;;;;;9.57;6.38;;;;;;;15.49;54.77;96814.81;4845794;29;20050;-79
2023/06/01 05:55:03;;;;;;;9.55;6.90;;;;;;;15.55;54.85;96813.22;4846271;29;20053;-78
2023/06/01 05:57:30;;;;;;;11.57;6.25;;;;;;;15.60;54.65;96810.75;4844868;29;20074;-78
2023/06/01 05:59:59;;;;;;;10.98;6.05;;;;;;;15.69;54.77;96819.22;4844730;29;20062;-78
2023/06/01 06:02:27;;;;;;;11.25;7.43;;;;;;;15.78;53.95;96812.72;4833253;29;20054;-79
2023/06/01 06:05:00;;;;;;;9.10;5.72;;;;;;;15.84;53.46;96815.31;4846852;29;20057;-80
2023/06/01 06:07:42;;;;;;;11.45;6.45;;;;;;;15.87;53.24;96821.97;4850460;29;20113;-79
2023/06/01 06:10:23;;;;;;;11.02;5.93;;;;;;;15.91;53.32;96823.19;4852234;29;20107;-79
2023/06/01 06:13:00;;;;;;;10.80;6.18;;;;;;;16.01;53.17;96820.91;4855172;29;20523;-79
2023/06/01 06:18:41;;;;;;;9.70;5.95;;;;;;;16.21;52.57;96822.63;4857804;29;20431;-80
2023/06/01 06:21:15;;;;;;;12.80;7.72;;;;;;;16.28;52.53;96828.66;4855813;29;20050;-79
2023/06/01 06:23:58;;;;;;;10.05;6.05;;;;;;;16.38;52.31;96822.94;4853605;29;20058;-79
2023/06/01 06:26:39;;;;;;;11.23;7.32;;;;;;;16.48;52.13;96828.50;4840246;29;20145;-79
2023/06/01 06:29:33;;;;;;;9.13;7.15;;;;;;;16.57;52.37;96824.59;4856567;29;20090;-80
2023/06/01 06:35:14;;;;;;;13.88;7.93;;;;;;;16.77;51.49;96813.09;4927601;23;20033;-82
2023/06/01 06:37:43;;;;;;;10.50;7.07;;;;;;;16.85;51.19;96818.13;4845692;29;20548;-80
2023/06/01 06:40:11;;;;;;;14.48;6.72;;;;;;;16.93;51.47;96820.50;4843595;29;20052;-80
2023/06/01 06:42:39;;;;;;;10.18;6.30;;;;;;;17.03;51.04;96823.47;4838948;29;20076;-80
2023/06/01 06:45:08;;;;;;;10.70;6.28;;;;;;;17.14;50.57;96831.66;4841663;29;20062;-81
2023/06/01 06:47:37;;;;;;;10.70;4.93;;;;;;;17.23;51.29;96828.53;4844654;29;20576;-80
2023/06/01 06:50:07;;;;;;;7.10;5.05;;;;;;;17.32;50.94;96823.78;4854292;29;20054;-80
2023/06/01 06:52:34;;;;;;;8.88;4.60;;;;;;;17.43;50.69;96822.25;4848461;29;20049;-80
2023/06/01 06:55:02;;;;;;;9.68;5.25;;;;;;;17.54;50.63;96826.78;4860982;29;20054;-80
2023/06/01 06:57:30;;;;;;;6.30;4.43;;;;;;;17.64;50.61;96829.69;4862438;29;20050;-80
2023/06/01 06:59:58;;;;;;;7.25;4.60;;;;;;;17.74;50.02;96818.63;4854970;29;20089;-80
2023/06/01 07:02:26;;;;;;;12.20;4.50;;;;;;;17.86;50.36;96824.00;4845829;29;20054;-80
2023/06/01 07:04:54;;;;;;;6.88;4.35;;;;;;;17.99;49.89;96820.38;4845600;29;20110;-81
2023/06/01 07:07:22;;;;;;;9.10;3.88;;;;;;;18.10;49.75;96823.09;4856762;29;20065;-82
2023/06/01 07:09:50;;;;;;;6.88;4.47;;;;;;;18.24;49.55;96831.63;4861387;29;20054;-81
2023/06/01 07:12:17;;;;;;;4.53;3.50;;;;;;;18.37;48.75;96820.06;4859877;29;20091;-81
2023/06/01 07:14:45;;;;;;;6.82;3.45;;;;;;;18.49;48.55;96823.53;4856762;29;20058;-83
2023/06/01 07:17:12;;;;;;;9.45;3.70;;;;;;;18.63;47.98;96820.66;4848124;29;20049;-84
2023/06/01 07:19:40;;;;;;;8.63;3.45;;;;;;;18.77;48.08;96822.09;4847603;29;20396;-82
2023/06/01 07:22:09;;;;;;;8.77;3.42;;;;;;;18.91;48.01;96818.22;4845653;29;20054;-81
2023/06/01 07:24:37;;;;;;;7.32;3.65;;;;;;;19.06;47.26;96816.97;4848190;29;20061;-83
2023/06/01 07:27:06;;;;;;;6.05;3.20;;;;;;;19.18;47.02;96809.03;4849525;29;20050;-82
2023/06/01 07:29:34;;;;;;;3.80;2.83;;;;;;;19.29;46.31;96818.78;4829087;29;20055;-82
2023/06/01 07:32:01;;;;;;;6.25;3.10;;;;;;;19.40;46.21;96814.53;4843101;29;20140;-82
2023/06/01 07:34:29;;;;;;;4.35;2.78;;;;;;;19.50;45.98;96809.44;4845773;29;20066;-82
2023/06/01 07:36:58;;;;;;;6.50;3.33;;;;;;;19.61;45.54;96808.59;4848788;29;20046;-82
2023/06/01 07:39:45;;;;;;;5.63;3.22;;;;;;;19.74;45.20;96808.38;4853024;29;20053;-82
2023/06/01 07:42:12;;;;;;;5.97;3.47;;;;;;;19.86;45.50;96805.69;4847396;29;20054;-82
2023/06/01 07:44:40;;;;;;;5.40;3.33;;;;;;;20.01;44.97;96807.81;4846412;29;20114;-82
2023/06/01 07:47:08;;;;;;;5.70;3.28;;;;;;;20.12;44.88;96809.63;4849663;29;20065;-82
2023/06/01 07:49:36;;;;;;;5.95;3.00;;;;;;;20.26;44.60;96811.97;4837109;29;20103;-82
2023/06/01 07:52:04;;;;;;;4.50;2.90;;;;;;;20.36;44.72;96814.81;4845219;29;20058;-81
2023/06/01 07:54:33;;;;;;;5.88;3.65;;;;;;;20.48;44.23;96818.16;4845841;29;20054;-81
2023/06/01 07:57:04;;;;;;;8.20;3.53;;;;;;;20.58;44.90;96807.78;4845795;29;20050;-81
2023/06/01 07:59:32;;;;;;;5.80;3.30;;;;;;;20.71;44.08;96808.53;4852776;29;20053;-82
2023/06/01 08:02:00;;;;;;;6.10;2.88;;;;;;;20.81;44.49;96803.34;4831320;29;20066;-81
2023/06/01 08:04:33;;;;;;;4.32;3.13;;;;;;;20.93;43.92;96804.09;4846028;29;20058;-81
2023/06/01 08:07:03;;;;;;;6.10;3.38;;;;;;;21.07;43.45;96803.75;4844796;29;20102;-81
2023/06/01 08:09:31;;;;;;;6.55;2.78;;;;;;;21.20;43.73;96803.41;4844808;29;20082;-81
2023/06/01 08:11:59;;;;;;;4.13;2.83;;;;;;;21.33;43.32;96796.94;4845445;29;20559;-81
2023/06/01 08:14:28;;;;;;;3.20;2.72;;;;;;;21.46;42.87;96795.81;4845387;29;20396;-81
2023/06/01 08:16:56;;;;;;;6.82;3.15;;;;;;;21.56;42.40;96795.94;4840980;29;20490;-82
2023/06/01 08:19:24;;;;;;;7.60;3.22;;;;;;;21.67;42.21;96797.66;4844937;29;20533;-82
2023/06/01 08:21:52;;;;;;;4.93;3.33;;;;;;;21.79;42.10;96795.66;4827236;29;20062;-82
2023/06/01 08:24:22;;;;;;;5.65;2.78;;;;;;;21.92;42.10;96788.38;4828903;29;20118;-81
2023/06/01 08:26:50;;;;;;;8.82;3.13;;;;;;;22.06;41.40;96783.47;4844060;29;20050;-81
2023/06/01 08:29:18;;;;;;;5.90;2.70;;;;;;;22.16;40.87;96788.88;4844612;29;20057;-82
2023/06/01 08:32:02;;;;;;;3.50;3.20;;;;;;;22.26;40.32;96790.84;4844498;29;20145;-81
2023/06/01 08:34:30;;;;;;;3.97;2.97;;;;;;;22.33;40.24;96788.81;4846520;29;20079;-81
2023/06/01 08:36:57;;;;;;;6.28;3.22;;;;;;;22.39;40.38;96782.47;4843068;29;20074;-80
2023/06/01 08:39:25;;;;;;;6.13;3.47;;;;;;;22.50;40.25;96780.69;4844420;29;20478;-80
2023/06/01 08:42:05;;;;;;;9.25;3.53;;;;;;;22.62;40.05;96784.78;4837439;29;20137;-80
2023/06/01 08:44:36;;;;;;;5.40;3.65;;;;;;;22.76;39.48;96787.00;4830573;29;20057;-80
2023/06/01 08:47:06;;;;;;;4.53;3.00;;;;;;;22.87;38.55;96772.75;4841130;29;20073;-80
2023/06/01 08:49:36;;;;;;;8.45;3.70;;;;;;;22.99;38.70;96785.84;4842895;29;20054;-80
2023/06/01 08:52:10;;;;;;;5.35;4.00;;;;;;;23.11;38.45;96778.53;4843419;29;20057;-79
2023/06/01 08:54:39;;;;;;;5.00;3.38;;;;;;;23.19;37.93;96782.53;4843385;29;20084;-80
2023/06/01 08:57:07;;;;;;;8.60;3.70;;;;;;;23.26;37.66;96784.97;4842801;29;20136;-80
2023/06/01 08:59:36;;;;;;;7.00;3.95;;;;;;;23.31;37.47;96777.00;4842477;29;20495;-80
2023/06/01 09:02:06;;;;;;;6.72;3.90;;;;;;;23.39;37.69;96787.94;4839462;29;20057;-79
2023/06/01 09:04:37;;;;;;;7.07;3.67;;;;;;;23.49;37.47;96778.44;4833703;29;20509;-80
2023/06/01 09:07:05;;;;;;;7.40;4.30;;;;;;;23.58;37.28;96782.19;4842151;29;20050;-79
2023/06/01 09:09:33;;;;;;;4.38;3.30;;;;;;;23.68;37.30;96776.91;4835025;29;20049;-80
2023/06/01 09:12:18;;;;;;;8.38;3.53;;;;;;;23.79;37.08;96783.06;4843197;29;20140;-80
2023/06/01 09:14:46;;;;;;;6.80;3.92;;;;;;;23.86;36.54;96773.00;4844227;29;20082;-80
2023/06/01 09:17:21;;;;;;;7.88;3.67;;;;;;;23.91;36.01;96780.19;4843898;29;20054;-80
2023/06/01 09:19:51;;;;;;;7.85;3.90;;;;;;;23.96;36.28;96782.88;4842886;29;20050;-80
2023/06/01 09:22:19;;;;;;;5.75;3.75;;;;;;;24.04;36.04;96785.03;4843766;29;20054;-79
2023/06/01 09:24:57;;;;;;;7.38;3.67;;;;;;;24.13;35.96;96783.44;4844149;29;20050;-81
2023/06/01 09:27:26;;;;;;;6.75;3.60;;;;;;;24.21;35.81;96782.13;4842806;29;20414;-80
2023/06/01 09:29:54;;;;;;;9.10;4.10;;;;;;;24.31;35.84;96784.00;4843039;29;20054;-80
2023/06/01 09:32:24;;;;;;;5.88;3.60;;;;;;;24.38;35.30;96785.34;4842493;29;20058;-80
2023/06/01 09:34:51;;;;;;;6.15;4.05;;;;;;;24.42;35.44;96786.41;4842901;29;20430;-79
2023/06/01 09:37:19;;;;;;;5.93;3.88;;;;;;;24.49;34.80;96788.03;4843063;29;20586;-80
2023/06/01 09:39:48;;;;;;;5.68;3.97;;;;;;;24.53;35.73;96781.09;4836472;29;20404;-83
2023/06/01 09:42:16;;;;;;;4.13;3.47;;;;;;;24.58;34.48;96776.56;4846502;29;20126;-82
2023/06/01 09:44:47;;;;;;;10.05;4.07;;;;;;;24.58;33.45;96779.25;4848812;29;20513;-84
2023/06/01 09:47:18;;;;;;;5.50;3.97;;;;;;;24.53;32.80;96775.75;4844854;29;20126;-81
2023/06/01 09:49:52;;;;;;;7.10;3.50;;;;;;;24.50;32.94;96781.66;4844037;29;20137;-79
2023/06/01 09:52:20;;;;;;;4.80;3.13;;;;;;;24.49;32.63;96769.38;4857749;29;20140;-79
2023/06/01 09:54:58;;;;;;;7.60;3.78;;;;;;;24.51;31.40;96768.06;4844567;29;20085;-80
2023/06/01 09:57:29;;;;;;;4.68;3.28;;;;;;;24.55;31.65;96766.44;4830457;29;20058;-80
2023/06/01 09:59:58;;;;;;;6.18;3.75;;;;;;;24.57;31.87;96766.16;4844434;29;20108;-80
2023/06/01 10:02:26;;;;;;;8.50;3.10;;;;;;;24.60;31.75;96771.78;4837186;29;20061;-80
2023/06/01 10:04:58;;;;;;;6.32;3.33;;;;;;;24.65;31.26;96763.75;4838230;29;20053;-80
2023/06/01 10:07:28;;;;;;;8.85;4.07;;;;;;;24.73;31.86;96759.78;4842793;29;20098;-80
2023/06/01 10:09:58;;;;;;;9.48;4.05;;;;;;;24.84;32.50;96758.69;4842515;29;20133;-80
2023/06/01 10:12:27;;;;;;;7.63;4.15;;;;;;;24.93;32.13;96758.94;4842622;29;20169;-80
2023/06/01 10:14:56;;;;;;;5.57;3.70;;;;;;;25.00;32.32;96764.00;4847649;29;20050;-80
2023/06/01 10:17:25;;;;;;;4.85;3.22;;;;;;;25.03;31.60;96758.91;4846055;29;20050;-79
2023/06/01 10:19:54;;;;;;;5.95;3.50;;;;;;;25.04;31.75;96749.84;4845163;29;20050;-78
2023/06/01 10:22:23;;;;;;;3.92;3.08;;;;;;;25.11;31.96;96744.22;4844545;29;20467;-78
2023/06/01 10:24:56;;;;;;;6.53;3.70;;;;;;;25.19;31.48;96745.50;4846348;29;20122;-86
2023/06/01 10:27:30;;;;;;;7.70;4.40;;;;;;;25.25;32.19;96733.78;4846907;29;20555;-85
2023/06/01 10:29:58;;;;;;;8.10;4.30;;;;;;;25.32;31.69;96728.97;4848254;29;20046;-84
2023/06/01 10:32:47;;;;;;;5.53;3.88;;;;;;;25.39;30.35;96742.81;4852362;29;20057;-84
2023/06/01 10:36:00;;;;;;;4.05;3.20;;;;;;;25.44;31.99;96740.13;4846827;29;20069;-84
2023/06/01 10:38:30;;;;;;;4.53;3.15;;;;;;;25.53;29.94;96734.22;4829821;29;20190;-83
2023/06/01 10:41:27;;;;;;;4.82;3.40;;;;;;;25.59;29.84;96733.13;4837472;29;20087;-84
2023/06/01 10:43:55;;;;;;;4.97;3.42;;;;;;;25.65;30.66;96722.13;4848257;29;20058;-84
2023/06/01 10:46:37;;;;;;;10.10;3.40;;;;;;;25.71;30.29;96728.22;4848209;29;20106;-85
2023/06/01 10:49:06;;;;;;;3.72;3.05;;;;;;;25.76;29.96;96730.88;4847395;29;20050;-84
2023/06/01 10:51:34;;;;;;;5.80;3.78;;;;;;;25.72;29.85;96729.84;4848085;29;20485;-84
2023/06/01 10:54:27;;;;;;;5.28;3.45;;;;;;;25.67;30.83;96727.19;4848688;29;20505;-84
2023/06/01 10:57:23;;;;;;;8.23;3.85;;;;;;;25.73;31.27;96726.06;4846979;29;20054;-85
2023/06/01 11:00:18;;;;;;;4.28;3.60;;;;;;;25.76;29.89;96730.88;4841715;29;20054;-79
2023/06/01 11:02:52;;;;;;;6.13;3.75;;;;;;;25.80;29.62;96723.09;4850347;29;20471;-78
2023/06/01 11:05:47;;;;;;;6.07;3.50;;;;;;;25.85;30.14;96723.09;4846435;29;20054;-79
2023/06/01 11:08:55;;;;;;;6.70;3.67;;;;;;;25.93;29.50;96717.16;4827284;29;20134;-80
2023/06/01 11:12:06;;;;;;;4.72;3.67;;;;;;;25.93;29.22;96722.50;4833704;29;20061;-78
2023/06/01 11:14:35;;;;;;;6.70;3.70;;;;;;;25.97;28.97;96709.41;4835678;29;20434;-79
2023/06/01 11:17:26;;;;;;;3.15;2.65;;;;;;;26.03;28.72;96710.97;4843225;29;20058;-79
2023/06/01 11:19:58;;;;;;;4.65;2.95;;;;;;;26.08;27.91;96705.56;4842324;29;20064;-78
2023/06/01 11:22:28;;;;;;;3.85;2.80;;;;;;;26.13;28.59;96705.56;4843251;29;20078;-79
2023/06/01 11:24:58;;;;;;;5.85;3.42;;;;;;;26.15;27.85;96697.22;4842827;29;20098;-79
2023/06/01 11:27:26;;;;;;;4.43;3.00;;;;;;;26.20;28.29;96700.69;4842869;29;20080;-77
2023/06/01 11:29:56;;;;;;;4.72;3.45;;;;;;;26.24;28.10;96695.59;4843890;29;20424;-79
2023/06/01 11:32:27;;;;;;;4.72;3.15;;;;;;;26.29;28.09;96687.50;4845408;29;20085;-78
2023/06/01 11:34:55;;;;;;;3.28;2.97;;;;;;;26.35;28.25;96690.91;4831220;29;20482;-78
2023/06/01 11:37:25;;;;;;;5.60;3.35;;;;;;;26.41;28.23;96689.81;4843351;29;20053;-78
2023/06/01 11:39:52;;;;;;;4.80;3.13;;;;;;;26.45;27.56;96685.50;4838116;29;20115;-78
2023/06/01 11:42:21;;;;;;;4.22;2.65;;;;;;;26.49;27.33;96689.19;4829731;29;20049;-79
2023/06/01 11:44:59;;;;;;;8.00;3.35;;;;;;;26.48;27.38;96685.72;4841559;29;20093;-78
2023/06/01 11:47:29;;;;;;;5.97;3.53;;;;;;;26.43;27.32;96684.97;4842788;29;20060;-78
2023/06/01 11:49:57;;;;;;;2.92;2.67;;;;;;;26.41;27.29;96677.22;4843493;29;20050;-78
2023/06/01 11:52:25;;;;;;;4.20;3.17;;;;;;;26.42;27.13;96686.06;4857044;29;20053;-79
2023/06/01 11:54:52;;;;;;;5.93;2.97;;;;;;;26.45;26.92;96674.78;4846154;29;20049;-77
2023/06/01 11:57:20;;;;;;;6.13;3.03;;;;;;;26.47;26.39;96670.75;4853041;29;20166;-78
2023/06/01 11:59:49;;;;;;;6.57;3.42;;;;;;;26.47;26.01;96673.44;4854411;29;20054;-78